createdAt,value
2022-07-30T00:00:29.055Z,101169.25
2022-07-30T00:02:57.516Z,101169.28
2022-07-30T00:05:25.864Z,101162.50
2022-07-30T00:07:54.334Z,101159.34
2022-07-30T00:10:23.320Z,101159.38
2022-07-30T00:12:51.735Z,101162.16
2022-07-30T00:15:20.148Z,101156.19
2022-07-30T00:17:49.304Z,101158.53
2022-07-30T00:20:18.503Z,101159.75
2022-07-30T00:22:47.184Z,101158.97
2022-07-30T00:25:17.726Z,101166.06
2022-07-30T00:27:46.446Z,101161.28
2022-07-30T00:30:15.193Z,101159.66
2022-07-30T00:32:44.854Z,101165.56
2022-07-30T00:35:15.017Z,101162.13
2022-07-30T00:37:43.289Z,101162.47
2022-07-30T00:40:11.785Z,101157.69
2022-07-30T00:42:46.871Z,101165.19
2022-07-30T00:45:17.958Z,101161.28
2022-07-30T00:47:46.563Z,101158.13
2022-07-30T00:50:16.851Z,101156.44
2022-07-30T00:52:46.068Z,101158.06
2022-07-30T00:55:15.789Z,101152.91
2022-07-30T00:57:45.060Z,101154.84
2022-07-30T01:00:16.691Z,101159.63
2022-07-30T01:02:45.523Z,101157.63
2022-07-30T01:05:14.211Z,101155.59
2022-07-30T01:07:43.451Z,101149.19
2022-07-30T01:10:16.018Z,101142.84
2022-07-30T01:12:45.780Z,101141.59
2022-07-30T01:15:14.475Z,101143.22
2022-07-30T01:17:42.743Z,101141.66
2022-07-30T01:20:21.044Z,101144.78
2022-07-30T01:23:07.163Z,101150.41
2022-07-30T01:26:10.954Z,101150.88
2022-07-30T01:28:48.838Z,101146.91
2022-07-30T01:31:20.964Z,101143.72
2022-07-30T01:33:50.722Z,101137.72
2022-07-30T01:36:23.449Z,101144.38
2022-07-30T01:38:53.437Z,101150.84
2022-07-30T01:41:22.544Z,101136.44
2022-07-30T01:43:52.849Z,101135.94
2022-07-30T01:46:24.876Z,101132.75
2022-07-30T01:48:57.471Z,101132.78
2022-07-30T01:51:37.308Z,101133.84
2022-07-30T01:54:11.499Z,101136.38
2022-07-30T01:56:42.847Z,101119.53
2022-07-30T01:59:16.454Z,101126.78
2022-07-30T02:01:49.055Z,101138.00
2022-07-30T02:04:17.985Z,101133.31
2022-07-30T02:07:12.562Z,101139.94
2022-07-30T02:10:01.715Z,101141.84
2022-07-30T02:12:38.482Z,101138.78
2022-07-30T02:15:28.936Z,101137.47
2022-07-30T02:18:17.655Z,101134.31
2022-07-30T02:20:56.426Z,101137.75
2022-07-30T02:23:28.311Z,101135.44
2022-07-30T02:26:00.428Z,101136.09
2022-07-30T02:28:33.721Z,101130.22
2022-07-30T02:31:01.977Z,101127.81
2022-07-30T02:33:50.389Z,101128.69
2022-07-30T02:36:21.354Z,101129.47
2022-07-30T02:38:52.218Z,101121.19
2022-07-30T02:41:24.263Z,101125.50
2022-07-30T02:43:55.207Z,101133.19
2022-07-30T02:46:25.839Z,101121.75
2022-07-30T02:49:30.371Z,101121.38
2022-07-30T02:52:00.588Z,101116.81
2022-07-30T02:54:32.604Z,101115.03
2022-07-30T02:57:05.665Z,101115.47
2022-07-30T02:59:38.577Z,101121.19
2022-07-30T03:02:11.671Z,101119.31
2022-07-30T03:04:43.941Z,101110.41
2022-07-30T03:07:20.045Z,101108.66
2022-07-30T03:09:51.023Z,101117.34
2022-07-30T03:12:23.080Z,101116.03
2022-07-30T03:14:53.968Z,101126.72
2022-07-30T03:17:26.668Z,101122.78
2022-07-30T03:19:57.928Z,101126.34
2022-07-30T03:22:33.030Z,101121.66
2022-07-30T03:25:05.819Z,101122.59
2022-07-30T03:27:38.244Z,101124.00
2022-07-30T03:30:07.771Z,101127.63
2022-07-30T03:32:37.372Z,101131.38
2022-07-30T03:35:17.102Z,101128.81
2022-07-30T03:37:48.570Z,101135.09
2022-07-30T03:40:19.170Z,101133.94
2022-07-30T03:42:48.404Z,101133.03
2022-07-30T03:45:21.629Z,101129.59
2022-07-30T03:47:52.581Z,101138.16
2022-07-30T03:50:20.816Z,101134.66
2022-07-30T03:52:50.730Z,101137.91
2022-07-30T03:55:19.536Z,101138.84
2022-07-30T03:57:51.166Z,101146.22
2022-07-30T04:00:24.190Z,101141.34
2022-07-30T04:02:54.668Z,101143.88
2022-07-30T04:05:37.408Z,101145.81
2022-07-30T04:08:09.830Z,101153.59
2022-07-30T04:10:39.635Z,101149.69
2022-07-30T04:13:26.547Z,101158.97
2022-07-30T04:16:39.189Z,101159.63
2022-07-30T04:19:21.971Z,101171.94
2022-07-30T04:21:52.716Z,101171.72
2022-07-30T04:24:23.661Z,101178.81
2022-07-30T04:26:52.982Z,101174.09
2022-07-30T04:29:24.671Z,101176.69
2022-07-30T04:31:54.806Z,101167.88
2022-07-30T04:34:35.823Z,101186.63
2022-07-30T04:37:07.958Z,101184.66
2022-07-30T04:39:36.331Z,101183.63
2022-07-30T04:42:04.714Z,101178.00
2022-07-30T04:44:32.925Z,101179.53
2022-07-30T04:47:27.389Z,101180.22
2022-07-30T04:50:29.231Z,101179.16
2022-07-30T04:52:59.506Z,101177.38
2022-07-30T04:55:35.873Z,101179.72
2022-07-30T04:58:05.945Z,101180.06
2022-07-30T05:00:41.363Z,101178.38
2022-07-30T05:03:17.355Z,101180.47
2022-07-30T05:05:57.323Z,101184.59
2022-07-30T05:08:28.299Z,101178.13
2022-07-30T05:10:58.266Z,101174.00
2022-07-30T05:13:34.533Z,101175.91
2022-07-30T05:16:06.965Z,101172.00
2022-07-30T05:18:36.143Z,101177.84
2022-07-30T05:21:05.146Z,101177.31
2022-07-30T05:23:37.309Z,101177.41
2022-07-30T05:26:14.768Z,101176.75
2022-07-30T05:28:52.069Z,101174.03
2022-07-30T05:31:26.453Z,101169.78
2022-07-30T05:34:03.591Z,101171.91
2022-07-30T05:36:42.847Z,101166.28
2022-07-30T05:39:13.772Z,101173.16
2022-07-30T05:42:05.468Z,101172.13
2022-07-30T05:44:37.453Z,101179.06
2022-07-30T05:47:05.671Z,101182.63
2022-07-30T05:49:34.160Z,101186.22
2022-07-30T05:52:11.650Z,101186.41
2022-07-30T05:54:39.896Z,101186.94
2022-07-30T05:57:28.391Z,101186.50
2022-07-30T05:59:56.580Z,101186.25
2022-07-30T06:02:43.421Z,101188.38
2022-07-30T06:05:26.774Z,101196.56
2022-07-30T06:07:57.335Z,101190.72
2022-07-30T06:10:27.220Z,101198.22
2022-07-30T06:12:55.492Z,101195.66
2022-07-30T06:15:26.196Z,101191.72
2022-07-30T06:18:02.018Z,101197.16
2022-07-30T06:20:46.497Z,101187.22
2022-07-30T06:23:40.900Z,101191.25
2022-07-30T06:26:35.348Z,101192.69
2022-07-30T06:29:06.427Z,101206.91
2022-07-30T06:31:34.811Z,101208.66
2022-07-30T06:34:03.133Z,101204.22
2022-07-30T06:36:37.350Z,101205.50
2022-07-30T06:39:57.655Z,101205.50
2022-07-30T06:42:21.321Z,101207.50
2022-07-30T06:45:09.053Z,101211.50
2022-07-30T06:48:00.699Z,101207.16
2022-07-30T06:50:32.311Z,101201.38
2022-07-30T06:53:01.065Z,101219.53
2022-07-30T06:55:40.888Z,101212.09
2022-07-30T06:58:09.092Z,101223.97
2022-07-30T07:00:57.462Z,101212.94
2022-07-30T07:03:26.393Z,101227.16
2022-07-30T07:06:09.402Z,101227.47
2022-07-30T07:08:39.694Z,101218.91
2022-07-30T07:11:10.368Z,101221.72
2022-07-30T07:13:46.282Z,101226.38
2022-07-30T07:16:25.338Z,101229.59
2022-07-30T07:18:55.976Z,101223.63
2022-07-30T07:21:24.380Z,101220.44
2022-07-30T07:23:55.149Z,101224.88
2022-07-30T07:26:42.082Z,101219.75
2022-07-30T07:29:11.259Z,101215.38
2022-07-30T07:32:06.450Z,101218.50
2022-07-30T07:34:28.595Z,101213.69
2022-07-30T07:36:56.891Z,101224.88
2022-07-30T07:39:25.189Z,101222.13
2022-07-30T07:41:53.821Z,101218.09
2022-07-30T07:44:24.684Z,101211.72
2022-07-30T07:46:52.891Z,101220.09
2022-07-30T07:49:21.767Z,101223.31
2022-07-30T07:51:53.982Z,101224.53
2022-07-30T07:54:23.269Z,101218.84
2022-07-30T07:56:56.645Z,101227.94
2022-07-30T07:59:42.966Z,101231.59
2022-07-30T08:02:16.784Z,101226.28
2022-07-30T08:04:54.005Z,101225.97
2022-07-30T08:07:44.251Z,101226.09
2022-07-30T08:10:50.864Z,101227.13
2022-07-30T08:13:52.230Z,101232.06
2022-07-30T08:16:33.413Z,101230.44
2022-07-30T08:19:31.021Z,101216.53
2022-07-30T08:22:12.771Z,101221.25
2022-07-30T08:24:43.796Z,101219.38
2022-07-30T08:27:12.408Z,101226.69
2022-07-30T08:29:40.656Z,101226.81
2022-07-30T08:32:09.273Z,101225.22
2022-07-30T08:34:39.699Z,101236.81
2022-07-30T08:37:08.127Z,101222.50
2022-07-30T08:39:37.521Z,101226.25
2022-07-30T08:42:05.990Z,101230.88
2022-07-30T08:44:36.978Z,101229.66
2022-07-30T08:47:11.545Z,101233.19
2022-07-30T08:50:04.484Z,101238.03
2022-07-30T08:52:38.142Z,101229.66
2022-07-30T08:55:08.384Z,101232.75
2022-07-30T08:57:37.496Z,101222.06
2022-07-30T09:00:08.798Z,101226.88
2022-07-30T09:02:37.062Z,101226.81
2022-07-30T09:05:07.625Z,101225.59
2022-07-30T09:07:37.216Z,101225.63
2022-07-30T09:10:10.042Z,101223.41
2022-07-30T09:12:44.924Z,101223.03
2022-07-30T09:15:21.298Z,101220.66
2022-07-30T09:18:04.077Z,101220.47
2022-07-30T09:20:37.083Z,101227.09
2022-07-30T09:23:09.336Z,101221.56
2022-07-30T09:25:59.945Z,101215.66
2022-07-30T09:28:54.447Z,101229.63
2022-07-30T09:32:01.746Z,101214.25
2022-07-30T09:34:53.448Z,101212.59
2022-07-30T09:37:47.875Z,101220.88
2022-07-30T09:40:36.471Z,101215.25
2022-07-30T09:43:50.222Z,101216.94
2022-07-30T09:46:51.592Z,101209.56
2022-07-30T09:49:29.819Z,101215.91
2022-07-30T09:51:58.528Z,101207.81
2022-07-30T09:54:57.349Z,101209.91
2022-07-30T09:57:29.498Z,101210.16
2022-07-30T10:00:23.631Z,101216.88
2022-07-30T10:03:33.965Z,101207.38
2022-07-30T10:06:38.242Z,101211.69
2022-07-30T10:09:33.640Z,101216.31
2022-07-30T10:12:11.182Z,101211.72
2022-07-30T10:14:47.349Z,101219.69
2022-07-30T10:17:20.715Z,101218.50
2022-07-30T10:20:18.045Z,101221.28
2022-07-30T10:23:09.329Z,101214.47
2022-07-30T10:25:49.211Z,101219.22
2022-07-30T10:28:43.608Z,101221.25
2022-07-30T10:31:49.363Z,101223.28
2022-07-30T10:34:00.619Z,101220.63
2022-07-30T10:36:30.724Z,101219.94
2022-07-30T10:38:59.024Z,101224.13
2022-07-30T10:41:48.521Z,101219.47
2022-07-30T10:44:41.832Z,101219.59
2022-07-30T10:47:16.707Z,101220.66
2022-07-30T10:50:14.040Z,101217.69
2022-07-30T10:52:46.455Z,101217.69
2022-07-30T10:55:16.297Z,101216.38
2022-07-30T10:58:22.855Z,101217.28
2022-07-30T11:00:54.547Z,101211.78
2022-07-30T11:03:41.173Z,101215.88
2022-07-30T11:06:16.317Z,101217.81
2022-07-30T11:08:48.275Z,101217.50
2022-07-30T11:11:59.177Z,101211.47
2022-07-30T11:14:10.850Z,101216.03
2022-07-30T11:16:38.918Z,101206.38
2022-07-30T11:19:56.747Z,101214.28
2022-07-30T11:22:25.471Z,101215.53
2022-07-30T11:24:54.629Z,101212.00
2022-07-30T11:27:48.539Z,101219.16
2022-07-30T11:30:17.562Z,101217.47
2022-07-30T11:32:48.450Z,101217.28
2022-07-30T11:35:34.537Z,101219.88
2022-07-30T11:38:19.745Z,101220.47
2022-07-30T11:40:50.557Z,101216.22
2022-07-30T11:43:35.815Z,101219.59
2022-07-30T11:46:28.527Z,101211.16
2022-07-30T11:49:08.713Z,101216.28
2022-07-30T11:51:42.539Z,101216.03
2022-07-30T11:54:12.733Z,101209.91
2022-07-30T11:56:55.283Z,101210.97
2022-07-30T11:59:23.569Z,101208.75
2022-07-30T12:01:56.008Z,101211.03
2022-07-30T12:04:24.641Z,101201.91
2022-07-30T12:06:53.254Z,101195.28
2022-07-30T12:09:27.535Z,101200.31
2022-07-30T12:11:57.484Z,101211.38
2022-07-30T12:14:25.839Z,101206.41
2022-07-30T12:16:55.122Z,101212.25
2022-07-30T12:19:23.355Z,101207.38
2022-07-30T12:21:53.631Z,101203.34
2022-07-30T12:24:26.962Z,101201.28
2022-07-30T12:27:07.904Z,101198.75
2022-07-30T12:29:36.875Z,101209.13
2022-07-30T12:32:05.684Z,101214.19
2022-07-30T12:34:33.962Z,101214.28
2022-07-30T12:37:10.366Z,101209.72
2022-07-30T12:39:40.547Z,101214.22
2022-07-30T12:42:19.948Z,101214.25
2022-07-30T12:44:51.233Z,101208.06
2022-07-30T12:47:28.805Z,101201.94
2022-07-30T12:50:01.608Z,101202.19
2022-07-30T12:52:34.446Z,101208.50
2022-07-30T12:55:12.754Z,101200.56
2022-07-30T12:57:54.017Z,101195.50
2022-07-30T13:00:52.952Z,101198.78
2022-07-30T13:03:27.873Z,101200.41
2022-07-30T13:05:57.666Z,101200.63
2022-07-30T13:08:51.202Z,101199.63
2022-07-30T13:11:23.459Z,101200.59
2022-07-30T13:13:52.907Z,101196.78
2022-07-30T13:16:21.606Z,101196.56
2022-07-30T13:18:49.873Z,101194.81
2022-07-30T13:21:18.101Z,101203.63
2022-07-30T13:23:46.362Z,101201.97
2022-07-30T13:26:14.673Z,101201.97
2022-07-30T13:28:43.121Z,101200.31
2022-07-30T13:31:11.532Z,101195.81
2022-07-30T13:33:40.357Z,101199.53
2022-07-30T13:36:09.128Z,101198.38
2022-07-30T13:38:37.393Z,101204.72
2022-07-30T13:41:06.556Z,101195.19
2022-07-30T13:43:35.204Z,101199.16
2022-07-30T13:46:05.522Z,101201.81
2022-07-30T13:48:35.806Z,101202.66
2022-07-30T13:51:05.979Z,101196.44
2022-07-30T13:53:34.143Z,101199.22
2022-07-30T13:56:03.629Z,101202.25
2022-07-30T13:58:36.116Z,101200.41
2022-07-30T14:01:07.190Z,101193.03
2022-07-30T14:03:35.645Z,101190.72
2022-07-30T14:06:10.733Z,101191.28
2022-07-30T14:08:39.671Z,101190.63
2022-07-30T14:11:08.441Z,101185.41
2022-07-30T14:13:36.712Z,101186.16
2022-07-30T14:16:10.709Z,101186.25
2022-07-30T14:18:46.242Z,101177.94
2022-07-30T14:21:14.780Z,101180.06
2022-07-30T14:23:42.960Z,101184.31
2022-07-30T14:26:11.140Z,101176.22
2022-07-30T14:28:39.318Z,101180.13
2022-07-30T14:31:07.534Z,101179.75
2022-07-30T14:33:35.782Z,101173.56
2022-07-30T14:36:04.335Z,101174.91
2022-07-30T14:38:32.502Z,101172.53
2022-07-30T14:41:00.676Z,101166.47
2022-07-30T14:43:28.817Z,101175.66
2022-07-30T14:45:57.321Z,101172.41
2022-07-30T14:48:26.324Z,101173.22
2022-07-30T14:51:13.310Z,101180.50
2022-07-30T14:53:42.670Z,101178.06
2022-07-30T14:56:17.707Z,101182.66
2022-07-30T14:58:46.316Z,101180.59
2022-07-30T15:01:16.415Z,101179.34
2022-07-30T15:03:45.734Z,101178.09
2022-07-30T15:06:15.532Z,101185.41
2022-07-30T15:08:46.122Z,101183.22
2022-07-30T15:11:14.651Z,101176.38
2022-07-30T15:13:50.241Z,101179.84
2022-07-30T15:16:20.162Z,101180.59
2022-07-30T15:18:48.369Z,101187.53
2022-07-30T15:21:16.646Z,101178.06
2022-07-30T15:23:44.995Z,101177.34
2022-07-30T15:26:13.188Z,101180.88
2022-07-30T15:28:42.090Z,101174.53
2022-07-30T15:31:10.337Z,101173.41
2022-07-30T15:33:43.068Z,101171.06
2022-07-30T15:36:11.857Z,101178.06
2022-07-30T15:38:40.037Z,101167.56
2022-07-30T15:41:13.046Z,101171.50
2022-07-30T15:43:41.846Z,101165.78
2022-07-30T15:46:10.127Z,101158.94
2022-07-30T15:48:38.379Z,101160.06
2022-07-30T15:51:06.625Z,101165.47
2022-07-30T15:53:35.325Z,101165.44
2022-07-30T15:56:03.702Z,101170.69
2022-07-30T15:58:32.210Z,101172.38
2022-07-30T16:01:01.874Z,101171.22
2022-07-30T16:03:30.147Z,101164.72
2022-07-30T16:05:58.320Z,101163.22
2022-07-30T16:08:26.647Z,101162.81
2022-07-30T16:10:55.004Z,101165.78
2022-07-30T16:13:23.223Z,101154.94
2022-07-30T16:15:51.433Z,101158.31
2022-07-30T16:18:19.606Z,101157.69
2022-07-30T16:20:47.783Z,101151.97
2022-07-30T16:23:20.835Z,101152.41
2022-07-30T16:25:49.612Z,101154.41
2022-07-30T16:28:17.853Z,101156.66
2022-07-30T16:30:51.063Z,101157.78
2022-07-30T16:33:20.245Z,101160.38
2022-07-30T16:35:51.016Z,101161.75
2022-07-30T16:38:20.888Z,101166.78
2022-07-30T16:40:49.935Z,101167.25
2022-07-30T16:43:20.035Z,101161.63
2022-07-30T16:45:48.865Z,101166.47
2022-07-30T16:48:17.063Z,101166.59
2022-07-30T16:50:46.219Z,101173.09
2022-07-30T16:53:14.929Z,101167.47
2022-07-30T16:55:44.729Z,101174.94
2022-07-30T16:58:13.316Z,101172.06
2022-07-30T17:00:42.050Z,101171.41
2022-07-30T17:03:11.968Z,101173.06
2022-07-30T17:05:48.517Z,101177.25
2022-07-30T17:08:17.743Z,101177.81
2022-07-30T17:10:47.810Z,101180.84
2022-07-30T17:13:16.723Z,101183.53
2022-07-30T17:15:46.983Z,101185.56
2022-07-30T17:18:15.956Z,101178.47
2022-07-30T17:20:45.344Z,101181.34
2022-07-30T17:23:13.672Z,101181.25
2022-07-30T17:25:41.942Z,101184.84
2022-07-30T17:28:10.148Z,101185.22
2022-07-30T17:30:38.359Z,101189.50
2022-07-30T17:33:06.632Z,101195.66
2022-07-30T17:35:34.882Z,101200.94
2022-07-30T17:38:03.520Z,101193.69
2022-07-30T17:40:32.198Z,101194.69
2022-07-30T17:43:04.668Z,101197.84
2022-07-30T17:45:36.977Z,101204.94
2022-07-30T17:48:06.373Z,101197.66
2022-07-30T17:50:34.991Z,101199.31
2022-07-30T17:53:05.881Z,101203.59
2022-07-30T17:55:36.878Z,101206.38
2022-07-30T17:58:05.778Z,101200.97
2022-07-30T18:00:35.570Z,101205.47
2022-07-30T18:03:04.603Z,101204.09
2022-07-30T18:05:32.936Z,101201.50
2022-07-30T18:08:01.151Z,101200.56
2022-07-30T18:10:29.583Z,101203.03
2022-07-30T18:12:57.838Z,101202.91
2022-07-30T18:15:26.140Z,101206.03
2022-07-30T18:17:54.340Z,101210.44
2022-07-30T18:20:22.628Z,101204.28
2022-07-30T18:22:51.722Z,101205.34
2022-07-30T18:25:20.325Z,101213.00
2022-07-30T18:27:51.738Z,101205.22
2022-07-30T18:30:20.059Z,101210.38
2022-07-30T18:32:50.114Z,101214.41
2022-07-30T18:35:18.328Z,101215.84
2022-07-30T18:37:46.686Z,101222.56
2022-07-30T18:40:23.671Z,101225.09
2022-07-30T18:42:52.676Z,101226.94
2022-07-30T18:45:21.251Z,101228.00
2022-07-30T18:47:49.542Z,101229.66
2022-07-30T18:50:18.320Z,101246.25
2022-07-30T18:52:47.915Z,101237.75
2022-07-30T18:55:17.384Z,101242.47
2022-07-30T18:57:45.696Z,101245.53
2022-07-30T19:00:34.053Z,101244.53
2022-07-30T19:03:03.796Z,101241.38
2022-07-30T19:05:31.974Z,101247.00
2022-07-30T19:08:00.227Z,101255.88
2022-07-30T19:10:28.487Z,101254.50
2022-07-30T19:12:56.773Z,101263.38
2022-07-30T19:15:25.371Z,101266.03
2022-07-30T19:17:53.728Z,101264.91
2022-07-30T19:20:23.584Z,101267.56
2022-07-30T19:22:53.316Z,101267.03
2022-07-30T19:25:21.598Z,101267.59
2022-07-30T19:27:49.778Z,101272.25
2022-07-30T19:30:18.012Z,101275.25
2022-07-30T19:32:46.187Z,101275.78
2022-07-30T19:35:14.449Z,101271.47
2022-07-30T19:37:43.094Z,101279.28
2022-07-30T19:40:12.739Z,101275.88
2022-07-30T19:42:41.678Z,101281.88
2022-07-30T19:45:12.145Z,101286.03
2022-07-30T19:47:42.768Z,101285.00
2022-07-30T19:50:11.910Z,101282.28
2022-07-30T19:52:40.522Z,101279.84
2022-07-30T19:55:31.101Z,101284.28
2022-07-30T19:58:16.489Z,101280.84
2022-07-30T20:00:48.473Z,101280.47
2022-07-30T20:03:25.969Z,101284.09
2022-07-30T20:05:59.475Z,101283.03
2022-07-30T20:08:28.853Z,101281.16
2022-07-30T20:10:59.248Z,101287.59
2022-07-30T20:13:45.155Z,101290.72
2022-07-30T20:16:16.394Z,101288.41
2022-07-30T20:18:46.543Z,101285.53
2022-07-30T20:21:16.171Z,101287.63
2022-07-30T20:23:45.286Z,101280.38
2022-07-30T20:26:15.055Z,101284.09
2022-07-30T20:28:52.479Z,101287.25
2022-07-30T20:31:21.581Z,101278.56
2022-07-30T20:33:51.024Z,101282.19
2022-07-30T20:36:19.790Z,101289.75
2022-07-30T20:38:49.390Z,101289.84
2022-07-30T20:41:17.612Z,101291.50
2022-07-30T20:43:51.876Z,101289.03
2022-07-30T20:46:22.906Z,101288.00
2022-07-30T20:48:53.023Z,101283.19
2022-07-30T20:51:21.987Z,101284.81
2022-07-30T20:54:02.566Z,101285.25
2022-07-30T20:56:30.883Z,101286.06
2022-07-30T20:58:59.099Z,101281.28
2022-07-30T21:01:28.699Z,101275.75
2022-07-30T21:03:59.088Z,101269.75
2022-07-30T21:06:27.246Z,101277.34
2022-07-30T21:08:56.833Z,101272.19
2022-07-30T21:11:26.586Z,101275.75
2022-07-30T21:13:55.064Z,101278.53
2022-07-30T21:16:25.420Z,101277.34
2022-07-30T21:18:53.609Z,101272.16
2022-07-30T21:21:29.077Z,101274.56
2022-07-30T21:24:11.581Z,101273.75
2022-07-30T21:26:41.712Z,101275.75
2022-07-30T21:29:10.556Z,101271.38
2022-07-30T21:32:01.659Z,101264.56
2022-07-30T21:34:30.916Z,101268.13
2022-07-30T21:37:03.771Z,101262.97
2022-07-30T21:39:31.965Z,101270.94
2022-07-30T21:42:09.215Z,101267.34
2022-07-30T21:44:38.601Z,101278.06
2022-07-30T21:47:10.168Z,101276.84
2022-07-30T21:49:39.812Z,101273.59
2022-07-30T21:52:08.854Z,101279.19
2022-07-30T21:54:48.043Z,101278.41
2022-07-30T21:57:23.240Z,101272.81
2022-07-30T21:59:55.155Z,101272.38
2022-07-30T22:02:25.067Z,101273.59
2022-07-30T22:04:53.755Z,101273.59
2022-07-30T22:07:22.476Z,101276.31
2022-07-30T22:09:50.698Z,101273.47
2022-07-30T22:12:19.026Z,101271.56
2022-07-30T22:14:49.690Z,101272.66
2022-07-30T22:17:23.602Z,101274.53
2022-07-30T22:20:08.497Z,101274.19
2022-07-30T22:22:40.236Z,101274.59
2022-07-30T22:25:10.156Z,101267.44
2022-07-30T22:27:55.663Z,101268.59
2022-07-30T22:30:28.358Z,101270.53
2022-07-30T22:33:16.398Z,101268.53
2022-07-30T22:35:49.467Z,101272.72
2022-07-30T22:38:19.677Z,101268.34
2022-07-30T22:40:49.575Z,101269.09
2022-07-30T22:43:17.837Z,101269.72
2022-07-30T22:45:48.532Z,101266.28
2022-07-30T22:48:19.151Z,101267.13
2022-07-30T22:50:55.517Z,101266.84
2022-07-30T22:54:10.746Z,101267.69
2022-07-30T22:56:15.449Z,101266.56
2022-07-30T22:58:44.619Z,101269.63
2022-07-30T23:01:12.831Z,101264.09
2022-07-30T23:03:42.091Z,101265.72
2022-07-30T23:06:14.573Z,101256.13
2022-07-30T23:08:58.837Z,101257.22
2022-07-30T23:11:37.210Z,101253.00
2022-07-30T23:14:07.364Z,101245.50
2022-07-30T23:16:37.285Z,101252.53
2022-07-30T23:19:06.781Z,101253.47
2022-07-30T23:21:35.266Z,101250.00
2022-07-30T23:24:03.724Z,101250.13
2022-07-30T23:26:33.270Z,101248.66
2022-07-30T23:29:01.459Z,101253.78
2022-07-30T23:31:29.609Z,101249.88
2022-07-30T23:33:57.867Z,101248.50
2022-07-30T23:36:26.223Z,101247.66
2022-07-30T23:38:55.123Z,101245.78
2022-07-30T23:41:29.377Z,101238.69
2022-07-30T23:43:59.259Z,101249.03
2022-07-30T23:46:27.568Z,101258.56
2022-07-30T23:48:55.758Z,101251.91
2022-07-30T23:51:24.105Z,101243.09
2022-07-30T23:53:52.292Z,101243.81
2022-07-30T23:56:22.358Z,101239.31
2022-07-30T23:58:52.160Z,101239.56
